Time;durP1;ratioP1;P1;durP2;ratioP2;P2;SDS_P1;SDS_P2;PMS_P1;PMS_P2;Temp;Humidity;BMP_temperature;BMP_pressure;BME280_temperature;BME280_humidity;BME280_pressure;Samples;Min_cycle;Max_cycle;Signal;HPM_P1;HPM_P2
2022/03/07 00:02:13;;;;;;;5.75;2.78;;;;;;;;;;4975345;28;20448;-81
2022/03/07 00:04:39;;;;;;;7.63;2.20;;;;;;;;;;4978200;28;20580;-81
2022/03/07 00:07:06;;;;;;;5.65;2.05;;;;;;;;;;4981785;28;20026;-81
2022/03/07 00:09:32;;;;;;;10.10;1.98;;;;;;;;;;4985747;28;20033;-81
2022/03/07 00:11:58;;;;;;;9.52;2.75;;;;;;;;;;4993168;28;20030;-81
2022/03/07 00:14:24;;;;;;;7.53;2.13;;;;;;;;;;4987871;28;20032;-81
2022/03/07 00:16:50;;;;;;;7.50;2.53;;;;;;;;;;4978758;28;20029;-81
2022/03/07 00:19:16;;;;;;;7.70;2.40;;;;;;;;;;4994193;28;20041;-81
2022/03/07 00:21:42;;;;;;;5.75;2.75;;;;;;;;;;4983848;28;20037;-81
2022/03/07 00:24:15;;;;;;;8.45;2.50;;;;;;;;;;4971403;28;20489;-81
2022/03/07 00:26:41;;;;;;;5.68;2.40;;;;;;;;;;4981454;28;20034;-81
2022/03/07 00:29:07;;;;;;;8.20;2.35;;;;;;;;;;4996417;28;20084;-81
2022/03/07 00:31:33;;;;;;;7.68;2.00;;;;;;;;;;4994985;28;20042;-81
2022/03/07 00:33:59;;;;;;;4.68;2.38;;;;;;;;;;4976797;28;20023;-81
2022/03/07 00:36:26;;;;;;;4.50;1.55;;;;;;;;;;4995399;28;20048;-81
2022/03/07 00:38:52;;;;;;;6.07;2.63;;;;;;;;;;4990622;28;20250;-81
2022/03/07 00:41:18;;;;;;;5.93;2.22;;;;;;;;;;4985700;28;20568;-81
2022/03/07 00:43:44;;;;;;;7.38;2.35;;;;;;;;;;4976572;28;20031;-81
2022/03/07 00:46:10;;;;;;;9.55;2.35;;;;;;;;;;4991825;28;20087;-81
2022/03/07 00:48:36;;;;;;;7.18;2.03;;;;;;;;;;4982317;28;20088;-80
2022/03/07 00:51:02;;;;;;;6.82;2.10;;;;;;;;;;4993779;28;20436;-81
2022/03/07 00:53:28;;;;;;;3.83;2.00;;;;;;;;;;4979712;28;20026;-81
2022/03/07 00:55:55;;;;;;;5.88;1.98;;;;;;;;;;4998628;28;20110;-81
2022/03/07 00:58:22;;;;;;;14.25;2.28;;;;;;;;;;4982371;28;20040;-81
2022/03/07 01:00:49;;;;;;;3.03;1.65;;;;;;;;;;4976828;28;20205;-81
2022/03/07 01:03:15;;;;;;;6.55;2.38;;;;;;;;;;4978086;28;20771;-81
2022/03/07 01:05:42;;;;;;;5.47;1.95;;;;;;;;;;4975937;28;20025;-81
2022/03/07 01:08:08;;;;;;;8.25;2.33;;;;;;;;;;4994563;28;20037;-81
2022/03/07 01:10:35;;;;;;;9.90;2.30;;;;;;;;;;5000777;28;20548;-81
2022/03/07 01:13:02;;;;;;;4.72;2.20;;;;;;;;;;4997840;28;20465;-80
2022/03/07 01:15:28;;;;;;;7.38;2.53;;;;;;;;;;4978686;28;20378;-81
2022/03/07 01:17:54;;;;;;;5.60;2.53;;;;;;;;;;4981593;28;20140;-80
2022/03/07 01:20:21;;;;;;;3.28;2.05;;;;;;;;;;4983332;28;20394;-81
2022/03/07 01:22:47;;;;;;;3.95;2.13;;;;;;;;;;4981734;28;20477;-80
2022/03/07 01:25:20;;;;;;;10.02;1.77;;;;;;;;;;4985885;28;20120;-81
2022/03/07 01:27:46;;;;;;;3.80;2.03;;;;;;;;;;4993505;28;20202;-81
2022/03/07 01:30:12;;;;;;;4.22;2.03;;;;;;;;;;4994798;28;20397;-81
2022/03/07 01:32:38;;;;;;;3.30;1.88;;;;;;;;;;4991671;28;20044;-81
2022/03/07 01:35:05;;;;;;;8.45;2.33;;;;;;;;;;4995611;28;20120;-81
2022/03/07 01:37:31;;;;;;;10.90;2.38;;;;;;;;;;4981126;28;20034;-81
2022/03/07 01:40:01;;;;;;;3.95;2.35;;;;;;;;;;4995852;28;20092;-81
2022/03/07 01:42:27;;;;;;;5.28;2.45;;;;;;;;;;4980330;28;20045;-81
2022/03/07 01:44:53;;;;;;;11.05;2.60;;;;;;;;;;4980934;28;20031;-81
2022/03/07 01:47:19;;;;;;;5.13;2.92;;;;;;;;;;4998461;28;20042;-81
2022/03/07 01:49:45;;;;;;;6.20;2.95;;;;;;;;;;4981098;28;20077;-81
2022/03/07 01:52:13;;;;;;;6.70;3.00;;;;;;;;;;5000001;28;20042;-81
2022/03/07 01:54:39;;;;;;;6.80;2.78;;;;;;;;;;4985697;28;20112;-81
2022/03/07 01:57:05;;;;;;;4.93;2.70;;;;;;;;;;4981708;28;20984;-81
2022/03/07 01:59:33;;;;;;;4.90;2.72;;;;;;;;;;4986169;28;20046;-81
2022/03/07 02:02:00;;;;;;;14.15;4.03;;;;;;;;;;4981993;28;20021;-81
2022/03/07 02:04:26;;;;;;;10.45;2.70;;;;;;;;;;4998270;28;20040;-81
2022/03/07 02:06:52;;;;;;;7.47;3.10;;;;;;;;;;4979869;28;20698;-81
2022/03/07 02:09:18;;;;;;;4.05;2.28;;;;;;;;;;5000919;28;20088;-81
2022/03/07 02:11:45;;;;;;;6.40;3.10;;;;;;;;;;4983523;28;20136;-81
2022/03/07 02:14:11;;;;;;;8.30;3.13;;;;;;;;;;4983823;28;20515;-81
2022/03/07 02:16:37;;;;;;;9.73;2.83;;;;;;;;;;4980745;28;20467;-81
2022/03/07 02:19:04;;;;;;;10.30;2.70;;;;;;;;;;4982224;28;20572;-81
2022/03/07 02:21:32;;;;;;;9.63;2.85;;;;;;;;;;4982709;28;20041;-81
2022/03/07 02:23:58;;;;;;;8.85;3.20;;;;;;;;;;4980978;28;20513;-81
2022/03/07 02:26:24;;;;;;;10.52;3.15;;;;;;;;;;4965637;28;20099;-81
2022/03/07 02:28:51;;;;;;;5.55;3.03;;;;;;;;;;4981573;28;20038;-81
2022/03/07 02:31:18;;;;;;;9.68;3.55;;;;;;;;;;4963806;28;20102;-81
2022/03/07 02:33:44;;;;;;;9.75;3.13;;;;;;;;;;4962641;28;20523;-81
2022/03/07 02:36:10;;;;;;;8.73;3.47;;;;;;;;;;4977309;28;20038;-81
2022/03/07 02:38:36;;;;;;;12.05;3.10;;;;;;;;;;4978697;28;20492;-81
2022/03/07 02:41:03;;;;;;;11.02;3.33;;;;;;;;;;4977640;28;20046;-81
2022/03/07 02:43:29;;;;;;;12.60;2.83;;;;;;;;;;4964249;28;20065;-80
2022/03/07 02:45:58;;;;;;;7.60;2.83;;;;;;;;;;4980747;28;20166;-81
2022/03/07 02:48:25;;;;;;;9.80;3.10;;;;;;;;;;4964047;28;20083;-81
2022/03/07 02:50:51;;;;;;;7.82;3.08;;;;;;;;;;4979806;28;20539;-81
2022/03/07 02:53:18;;;;;;;5.97;2.80;;;;;;;;;;4961962;28;20060;-81
2022/03/07 02:55:44;;;;;;;9.75;3.25;;;;;;;;;;4959519;28;20063;-81
2022/03/07 02:58:10;;;;;;;5.72;3.03;;;;;;;;;;4964609;28;20035;-81
2022/03/07 03:00:37;;;;;;;4.22;2.70;;;;;;;;;;4959496;28;20034;-81
2022/03/07 03:03:03;;;;;;;5.43;3.30;;;;;;;;;;4977278;28;20034;-81
2022/03/07 03:05:29;;;;;;;8.90;3.60;;;;;;;;;;4981258;28;20169;-80
2022/03/07 03:07:55;;;;;;;8.48;3.47;;;;;;;;;;4963346;28;20038;-81
2022/03/07 03:10:21;;;;;;;4.80;3.22;;;;;;;;;;4963763;28;20061;-81
2022/03/07 03:12:48;;;;;;;7.95;3.38;;;;;;;;;;4979515;28;20508;-81
2022/03/07 03:15:14;;;;;;;6.93;3.00;;;;;;;;;;4958474;28;20038;-81
2022/03/07 03:17:43;;;;;;;5.82;3.22;;;;;;;;;;4981264;28;20073;-81
2022/03/07 03:20:11;;;;;;;7.05;2.83;;;;;;;;;;4963211;28;20023;-81
2022/03/07 03:22:37;;;;;;;11.57;3.58;;;;;;;;;;4963164;28;20069;-81
2022/03/07 03:25:04;;;;;;;17.73;3.38;;;;;;;;;;4973772;28;20046;-81
2022/03/07 03:27:30;;;;;;;12.65;3.35;;;;;;;;;;4961272;28;20076;-81
2022/03/07 03:29:56;;;;;;;9.98;3.70;;;;;;;;;;4964884;28;20498;-81
2022/03/07 03:32:23;;;;;;;8.48;3.75;;;;;;;;;;4977365;28;20065;-81
2022/03/07 03:34:49;;;;;;;9.73;3.38;;;;;;;;;;4963573;28;20268;-81
2022/03/07 03:37:15;;;;;;;9.05;3.55;;;;;;;;;;4965252;28;20045;-80
2022/03/07 03:39:41;;;;;;;6.18;3.42;;;;;;;;;;4964727;28;20026;-81
2022/03/07 03:42:07;;;;;;;8.60;4.20;;;;;;;;;;4979918;28;20026;-81
2022/03/07 03:44:33;;;;;;;7.93;4.05;;;;;;;;;;4959890;28;20034;-81
2022/03/07 03:47:00;;;;;;;12.18;4.05;;;;;;;;;;4960568;28;20109;-81
2022/03/07 03:49:26;;;;;;;10.82;4.20;;;;;;;;;;4977694;28;20038;-81
2022/03/07 03:51:52;;;;;;;12.20;4.22;;;;;;;;;;4980150;28;20103;-81
2022/03/07 03:54:18;;;;;;;11.52;3.15;;;;;;;;;;4981201;28;20038;-81
2022/03/07 03:56:44;;;;;;;9.48;3.55;;;;;;;;;;4960691;28;20039;-81
2022/03/07 03:59:10;;;;;;;10.18;3.83;;;;;;;;;;4978823;28;20027;-81
2022/03/07 04:01:45;;;;;;;11.80;4.15;;;;;;;;;;4960910;28;20694;-81
2022/03/07 04:04:12;;;;;;;10.05;4.38;;;;;;;;;;4963337;28;20080;-81
2022/03/07 04:06:38;;;;;;;15.02;4.10;;;;;;;;;;4962458;28;20813;-81
2022/03/07 04:09:09;;;;;;;13.45;4.97;;;;;;;;;;4981366;28;20038;-81
2022/03/07 04:11:35;;;;;;;6.47;4.00;;;;;;;;;;4978043;28;20109;-81
2022/03/07 04:14:02;;;;;;;12.20;3.35;;;;;;;;;;4962721;28;20040;-81
2022/03/07 04:16:28;;;;;;;8.52;3.55;;;;;;;;;;4961964;28;20406;-81
2022/03/07 04:18:54;;;;;;;14.00;4.80;;;;;;;;;;4963472;28;20381;-81
2022/03/07 04:21:20;;;;;;;6.35;3.38;;;;;;;;;;4976083;28;20782;-81
2022/03/07 04:23:46;;;;;;;7.40;2.95;;;;;;;;;;4959640;28;20022;-81
2022/03/07 04:26:13;;;;;;;6.00;3.60;;;;;;;;;;4964263;28;20070;-81
2022/03/07 04:28:40;;;;;;;7.45;3.75;;;;;;;;;;4959078;28;20039;-81
2022/03/07 04:31:07;;;;;;;5.60;3.47;;;;;;;;;;4977436;28;20751;-81
2022/03/07 04:33:34;;;;;;;5.50;3.47;;;;;;;;;;4979089;28;20026;-81
2022/03/07 04:36:00;;;;;;;10.98;3.78;;;;;;;;;;4961454;28;20315;-81
2022/03/07 04:38:26;;;;;;;10.20;3.90;;;;;;;;;;4970615;28;20532;-81
2022/03/07 04:40:53;;;;;;;9.07;3.70;;;;;;;;;;4979490;28;20053;-81
2022/03/07 04:43:19;;;;;;;7.90;3.78;;;;;;;;;;4977783;28;20046;-81
2022/03/07 04:45:46;;;;;;;14.02;4.47;;;;;;;;;;4962629;28;20031;-81
2022/03/07 04:48:14;;;;;;;9.60;3.75;;;;;;;;;;4964709;28;20556;-81
2022/03/07 04:50:40;;;;;;;7.38;3.65;;;;;;;;;;4958643;28;20064;-81
2022/03/07 04:53:06;;;;;;;12.43;4.00;;;;;;;;;;4964634;28;20451;-81
2022/03/07 04:55:33;;;;;;;8.63;4.00;;;;;;;;;;4959746;28;20085;-81
2022/03/07 04:57:59;;;;;;;9.93;3.40;;;;;;;;;;4961447;28;20069;-80
2022/03/07 05:00:25;;;;;;;6.70;3.13;;;;;;;;;;4959620;28;20026;-81
2022/03/07 05:02:54;;;;;;;14.38;3.90;;;;;;;;;;4974121;28;20042;-81
2022/03/07 05:05:20;;;;;;;7.97;3.35;;;;;;;;;;4976579;28;20039;-81
2022/03/07 05:07:49;;;;;;;12.48;3.63;;;;;;;;;;4976498;28;20061;-80
2022/03/07 05:10:16;;;;;;;7.18;3.50;;;;;;;;;;4977150;28;20113;-81
2022/03/07 05:12:43;;;;;;;11.80;3.30;;;;;;;;;;4975351;28;20577;-81
2022/03/07 05:15:09;;;;;;;12.07;3.33;;;;;;;;;;4974929;28;20031;-80
2022/03/07 05:17:46;;;;;;;9.90;3.60;;;;;;;;;;4960142;28;20577;-81
2022/03/07 05:20:12;;;;;;;7.68;3.88;;;;;;;;;;4960031;28;20399;-81
2022/03/07 05:22:39;;;;;;;12.85;3.95;;;;;;;;;;4977234;28;20041;-81
2022/03/07 05:25:19;;;;;;;11.55;3.95;;;;;;;;;;4988837;28;20050;-81
2022/03/07 05:27:46;;;;;;;10.20;4.03;;;;;;;;;;4981030;28;20466;-81
2022/03/07 05:30:17;;;;;;;4.90;3.03;;;;;;;;;;4977628;28;20504;-81
2022/03/07 05:32:44;;;;;;;6.55;3.10;;;;;;;;;;4995530;28;21538;-81
2022/03/07 05:35:10;;;;;;;7.05;3.53;;;;;;;;;;4980408;28;20337;-81
2022/03/07 05:37:37;;;;;;;8.88;4.03;;;;;;;;;;4994588;28;20053;-81
2022/03/07 05:40:04;;;;;;;10.35;4.40;;;;;;;;;;4986006;28;20160;-81
2022/03/07 05:42:30;;;;;;;15.98;4.78;;;;;;;;;;4980429;28;20063;-81
2022/03/07 05:44:56;;;;;;;6.13;3.90;;;;;;;;;;4995768;28;20159;-81
2022/03/07 05:47:22;;;;;;;10.63;3.72;;;;;;;;;;4983211;28;20434;-81
2022/03/07 05:49:48;;;;;;;12.25;4.25;;;;;;;;;;4981071;28;20625;-81
2022/03/07 05:52:15;;;;;;;12.45;4.35;;;;;;;;;;4994404;28;20037;-81
2022/03/07 05:54:41;;;;;;;7.60;3.58;;;;;;;;;;4978294;28;20034;-81
2022/03/07 05:57:07;;;;;;;8.07;3.72;;;;;;;;;;4992095;28;20480;-80
2022/03/07 05:59:33;;;;;;;6.40;3.45;;;;;;;;;;4978509;28;20139;-81
2022/03/07 06:01:59;;;;;;;16.25;4.50;;;;;;;;;;4980236;28;20147;-81
2022/03/07 06:04:26;;;;;;;12.30;3.95;;;;;;;;;;4979970;28;20030;-81
2022/03/07 06:06:52;;;;;;;14.75;4.40;;;;;;;;;;4976522;28;20496;-81
2022/03/07 06:09:18;;;;;;;11.95;4.45;;;;;;;;;;4981666;28;20041;-81
2022/03/07 06:11:44;;;;;;;16.30;5.13;;;;;;;;;;4979874;28;20382;-81
2022/03/07 06:14:10;;;;;;;15.18;4.90;;;;;;;;;;4993276;28;20133;-81
2022/03/07 06:16:36;;;;;;;9.38;4.60;;;;;;;;;;4995650;28;20042;-81
2022/03/07 06:19:03;;;;;;;12.00;4.00;;;;;;;;;;4997301;28;20034;-81
2022/03/07 06:21:29;;;;;;;8.77;4.20;;;;;;;;;;4976581;28;20037;-81
2022/03/07 06:23:55;;;;;;;14.07;4.82;;;;;;;;;;4991882;28;20343;-80
2022/03/07 06:26:23;;;;;;;16.25;4.65;;;;;;;;;;4981634;28;20757;-81
2022/03/07 06:28:49;;;;;;;13.45;4.18;;;;;;;;;;4959220;28;20030;-81
2022/03/07 06:31:15;;;;;;;13.60;4.38;;;;;;;;;;4958518;28;20093;-81
2022/03/07 06:33:41;;;;;;;14.38;5.53;;;;;;;;;;4960573;28;20034;-81
2022/03/07 06:36:08;;;;;;;14.88;4.93;;;;;;;;;;4959152;28;20034;-81
2022/03/07 06:38:34;;;;;;;11.63;5.65;;;;;;;;;;4967461;28;20572;-81
2022/03/07 06:41:00;;;;;;;13.20;5.75;;;;;;;;;;4964401;28;20521;-81
2022/03/07 06:43:27;;;;;;;12.15;5.20;;;;;;;;;;4962178;28;20081;-81
2022/03/07 06:45:54;;;;;;;11.93;5.18;;;;;;;;;;4980590;28;20037;-81
2022/03/07 06:48:20;;;;;;;12.18;5.80;;;;;;;;;;4964426;28;20096;-81
2022/03/07 06:50:47;;;;;;;14.90;5.60;;;;;;;;;;4958272;28;20046;-81
2022/03/07 06:53:13;;;;;;;23.60;6.53;;;;;;;;;;4982801;28;20406;-81
2022/03/07 06:55:39;;;;;;;19.98;7.72;;;;;;;;;;4966091;28;20034;-81
2022/03/07 06:58:05;;;;;;;14.48;6.78;;;;;;;;;;4964492;28;20065;-81
2022/03/07 07:00:31;;;;;;;13.07;6.47;;;;;;;;;;4958542;28;20038;-81
2022/03/07 07:02:57;;;;;;;18.95;6.60;;;;;;;;;;4968189;28;20022;-81
2022/03/07 07:05:24;;;;;;;10.10;5.90;;;;;;;;;;4960624;28;20153;-81
2022/03/07 07:07:50;;;;;;;17.00;6.28;;;;;;;;;;4967342;28;20038;-81
2022/03/07 07:10:19;;;;;;;17.08;6.43;;;;;;;;;;4978882;28;20362;-81
2022/03/07 07:12:46;;;;;;;14.45;6.18;;;;;;;;;;4959476;28;20520;-81
2022/03/07 07:15:12;;;;;;;14.13;6.25;;;;;;;;;;4963859;28;20034;-81
2022/03/07 07:17:39;;;;;;;21.05;5.90;;;;;;;;;;4961270;28;20065;-81
2022/03/07 07:20:05;;;;;;;16.23;6.70;;;;;;;;;;4963670;28;20022;-81
2022/03/07 07:22:34;;;;;;;16.52;6.50;;;;;;;;;;4961192;28;20441;-81
2022/03/07 07:25:15;;;;;;;14.57;6.75;;;;;;;;;;4965513;28;20041;-81
2022/03/07 07:27:41;;;;;;;12.73;6.72;;;;;;;;;;5001432;28;20030;-81
2022/03/07 07:30:09;;;;;;;17.88;6.50;;;;;;;;;;4996459;28;20022;-81
2022/03/07 07:32:35;;;;;;;16.75;5.90;;;;;;;;;;4997782;28;20085;-82
2022/03/07 07:35:01;;;;;;;15.07;6.20;;;;;;;;;;4998219;28;20034;-81
2022/03/07 07:37:27;;;;;;;16.27;5.82;;;;;;;;;;4993808;28;20041;-81
2022/03/07 07:39:53;;;;;;;22.33;6.85;;;;;;;;;;4994399;28;20536;-81
2022/03/07 07:42:19;;;;;;;19.15;6.53;;;;;;;;;;4980615;28;20030;-81
2022/03/07 07:44:45;;;;;;;20.45;6.65;;;;;;;;;;4981364;28;20536;-81
2022/03/07 07:47:11;;;;;;;16.38;7.13;;;;;;;;;;4985843;28;20403;-81
2022/03/07 07:49:38;;;;;;;23.90;8.77;;;;;;;;;;4998897;28;20030;-81
2022/03/07 07:52:04;;;;;;;29.20;8.70;;;;;;;;;;4995723;28;20057;-81
2022/03/07 07:54:31;;;;;;;18.45;7.63;;;;;;;;;;4997589;28;20029;-82
2022/03/07 07:56:58;;;;;;;17.58;6.68;;;;;;;;;;4984503;28;20072;-81
2022/03/07 07:59:24;;;;;;;18.95;6.55;;;;;;;;;;4981532;28;20547;-82
2022/03/07 08:01:50;;;;;;;15.45;6.50;;;;;;;;;;4984085;28;20057;-82
2022/03/07 08:04:16;;;;;;;12.20;6.30;;;;;;;;;;5001519;28;21464;-82
2022/03/07 08:06:42;;;;;;;13.93;5.68;;;;;;;;;;4995152;28;20041;-82
2022/03/07 08:09:08;;;;;;;10.57;4.40;;;;;;;;;;4996679;28;20492;-82
2022/03/07 08:11:34;;;;;;;15.15;4.30;;;;;;;;;;4984196;28;20126;-82
2022/03/07 08:14:00;;;;;;;10.48;3.70;;;;;;;;;;4981371;28;20080;-81
2022/03/07 08:16:26;;;;;;;5.85;3.22;;;;;;;;;;4983031;28;20793;-82
2022/03/07 08:18:52;;;;;;;14.43;3.28;;;;;;;;;;4984566;28;20105;-81
2022/03/07 08:21:25;;;;;;;8.57;2.53;;;;;;;;;;4999408;28;20041;-81
2022/03/07 08:23:51;;;;;;;7.57;2.60;;;;;;;;;;4981583;28;20097;-82
2022/03/07 08:26:17;;;;;;;4.68;2.85;;;;;;;;;;4982621;28;20061;-81
2022/03/07 08:28:43;;;;;;;14.73;2.92;;;;;;;;;;4983000;28;20556;-82
2022/03/07 08:31:09;;;;;;;10.10;3.03;;;;;;;;;;4998693;28;20104;-82
2022/03/07 08:33:35;;;;;;;8.75;3.05;;;;;;;;;;4999905;28;20484;-82
2022/03/07 08:36:02;;;;;;;5.30;2.33;;;;;;;;;;4979730;28;20489;-81
2022/03/07 08:38:28;;;;;;;8.98;3.00;;;;;;;;;;5001094;28;20041;-82
2022/03/07 08:40:55;;;;;;;6.55;2.65;;;;;;;;;;4994282;28;20485;-82
2022/03/07 08:43:21;;;;;;;9.95;2.70;;;;;;;;;;4982606;28;20026;-82
2022/03/07 08:45:47;;;;;;;6.15;2.20;;;;;;;;;;4992521;28;20105;-82
2022/03/07 08:48:15;;;;;;;7.20;2.80;;;;;;;;;;4998469;28;20398;-81
2022/03/07 08:50:41;;;;;;;5.10;1.95;;;;;;;;;;4978616;28;20555;-81
2022/03/07 08:53:07;;;;;;;9.40;2.22;;;;;;;;;;4982581;28;20489;-81
2022/03/07 08:55:33;;;;;;;8.18;2.88;;;;;;;;;;4990765;28;20035;-82
2022/03/07 08:58:00;;;;;;;5.50;2.30;;;;;;;;;;4990870;28;20788;-82
2022/03/07 09:00:27;;;;;;;9.23;2.70;;;;;;;;;;4979408;28;20029;-81
2022/03/07 09:02:53;;;;;;;6.90;2.47;;;;;;;;;;4996674;28;20644;-82
2022/03/07 09:05:19;;;;;;;6.50;1.92;;;;;;;;;;4983217;28;20430;-82
2022/03/07 09:07:45;;;;;;;6.70;2.17;;;;;;;;;;4976779;28;20029;-82
2022/03/07 09:10:11;;;;;;;7.22;2.33;;;;;;;;;;4983651;28;20076;-82
2022/03/07 09:12:37;;;;;;;8.10;2.20;;;;;;;;;;4999105;28;20125;-82
2022/03/07 09:15:04;;;;;;;5.07;2.10;;;;;;;;;;4996896;28;20087;-82
2022/03/07 09:17:31;;;;;;;4.90;1.95;;;;;;;;;;4996216;28;20069;-82
2022/03/07 09:20:05;;;;;;;6.30;2.38;;;;;;;;;;4983752;28;20317;-82
2022/03/07 09:22:31;;;;;;;3.60;2.05;;;;;;;;;;4981112;28;20038;-82
2022/03/07 09:24:57;;;;;;;6.40;2.55;;;;;;;;;;4977404;28;20355;-82
2022/03/07 09:27:30;;;;;;;5.00;1.85;;;;;;;;;;4982449;28;20037;-82
2022/03/07 09:29:56;;;;;;;7.80;1.90;;;;;;;;;;4992407;28;20817;-82
2022/03/07 09:32:22;;;;;;;4.65;1.92;;;;;;;;;;4989804;28;20028;-82
2022/03/07 09:34:48;;;;;;;4.60;2.47;;;;;;;;;;4990886;28;20033;-82
2022/03/07 09:37:15;;;;;;;3.05;1.92;;;;;;;;;;4975581;28;20053;-82
2022/03/07 09:39:41;;;;;;;9.98;2.10;;;;;;;;;;4981835;28;20112;-82
2022/03/07 09:42:07;;;;;;;12.80;2.53;;;;;;;;;;4998183;28;20248;-82
2022/03/07 09:44:33;;;;;;;5.15;2.15;;;;;;;;;;4976210;28;20018;-82
2022/03/07 09:47:00;;;;;;;5.97;1.65;;;;;;;;;;4979164;28;20029;-82
2022/03/07 09:49:26;;;;;;;3.78;1.80;;;;;;;;;;4980479;28;20168;-82
2022/03/07 09:51:53;;;;;;;6.85;2.17;;;;;;;;;;4993138;28;20386;-82
2022/03/07 09:54:19;;;;;;;9.23;2.72;;;;;;;;;;4992895;28;20041;-82
2022/03/07 09:56:46;;;;;;;6.40;2.40;;;;;;;;;;4995344;28;20030;-82
2022/03/07 09:59:12;;;;;;;3.08;2.22;;;;;;;;;;4998903;28;20034;-82
2022/03/07 10:01:38;;;;;;;7.18;2.40;;;;;;;;;;4992841;28;20420;-82
2022/03/07 10:04:05;;;;;;;6.93;1.90;;;;;;;;;;4994675;28;20097;-83
2022/03/07 10:06:31;;;;;;;3.75;1.48;;;;;;;;;;4994923;28;20050;-82
2022/03/07 10:08:59;;;;;;;7.40;1.77;;;;;;;;;;4977233;28;20595;-82
2022/03/07 10:11:26;;;;;;;6.60;1.90;;;;;;;;;;4977331;28;20101;-81
2022/03/07 10:13:53;;;;;;;4.28;1.80;;;;;;;;;;4980786;28;20042;-82
2022/03/07 10:16:20;;;;;;;9.52;2.63;;;;;;;;;;4996859;28;20502;-82
2022/03/07 10:18:54;;;;;;;6.55;1.90;;;;;;;;;;4998205;28;20034;-82
2022/03/07 10:21:22;;;;;;;5.75;2.50;;;;;;;;;;4987719;28;20445;-82
2022/03/07 10:23:52;;;;;;;10.32;2.90;;;;;;;;;;4979880;28;20026;-82
2022/03/07 10:26:24;;;;;;;9.90;4.30;;;;;;;;;;4981078;28;20665;-82
2022/03/07 10:28:55;;;;;;;5.60;2.42;;;;;;;;;;5000208;28;20025;-83
2022/03/07 10:31:22;;;;;;;4.47;2.83;;;;;;;;;;4999529;28;20153;-82
2022/03/07 10:33:49;;;;;;;5.15;1.83;;;;;;;;;;4984909;28;20026;-82
2022/03/07 10:36:15;;;;;;;8.82;2.63;;;;;;;;;;4998450;28;20026;-82
2022/03/07 10:38:43;;;;;;;3.78;2.67;;;;;;;;;;4998744;28;20037;-82
2022/03/07 10:41:09;;;;;;;4.63;1.85;;;;;;;;;;4981620;28;20477;-82
2022/03/07 10:43:56;;;;;;;5.20;3.03;;;;;;;;;;4995369;28;20061;-82
2022/03/07 10:46:21;;;;;;;;;;;;;;;;;;4984081;28;20105;-82
2022/03/07 10:48:50;;;;;;;12.23;2.83;;;;;;;;;;4982034;28;19917;-82
2022/03/07 10:51:17;;;;;;;8.20;3.60;;;;;;;;;;4990510;28;20601;-82
2022/03/07 10:53:43;;;;;;;4.55;2.75;;;;;;;;;;4978110;28;21003;-82
2022/03/07 10:56:12;;;;;;;6.85;3.00;;;;;;;;;;4985036;28;20136;-82
2022/03/07 10:58:45;;;;;;;3.55;2.60;;;;;;;;;;4978287;28;20124;-82
2022/03/07 11:01:12;;;;;;;4.50;3.15;;;;;;;;;;4969880;28;20036;-82
2022/03/07 11:03:38;;;;;;;9.50;3.08;;;;;;;;;;4996324;28;20033;-83
2022/03/07 11:06:04;;;;;;;4.15;2.85;;;;;;;;;;4982875;28;20121;-83
2022/03/07 11:08:30;;;;;;;6.03;3.00;;;;;;;;;;4974788;28;20053;-82
2022/03/07 11:11:01;;;;;;;4.50;1.95;;;;;;;;;;4996997;28;20187;-83
2022/03/07 11:13:29;;;;;;;6.90;3.75;;;;;;;;;;4983403;28;20398;-83
2022/03/07 11:15:56;;;;;;;3.50;2.70;;;;;;;;;;4978236;28;20026;-82
2022/03/07 11:18:23;;;;;;;5.00;2.90;;;;;;;;;;4978176;28;20029;-83
2022/03/07 11:20:50;;;;;;;4.55;3.42;;;;;;;;;;4994714;28;20155;-83
2022/03/07 11:23:17;;;;;;;3.30;3.00;;;;;;;;;;4997884;28;20617;-82
2022/03/07 11:25:44;;;;;;;4.88;1.90;;;;;;;;;;4980319;28;20054;-82
2022/03/07 11:28:10;;;;;;;3.50;2.80;;;;;;;;;;4998028;28;20041;-82
2022/03/07 11:30:37;;;;;;;6.90;2.85;;;;;;;;;;4994915;28;20076;-83
2022/03/07 11:33:10;;;;;;;4.85;3.00;;;;;;;;;;4972693;28;20455;-82
2022/03/07 11:35:37;;;;;;;5.82;2.70;;;;;;;;;;4988636;28;20049;-82
2022/03/07 11:38:13;;;;;;;3.22;2.55;;;;;;;;;;4977050;28;20054;-82
2022/03/07 11:40:59;;;;;;;4.93;2.53;;;;;;;;;;4977589;28;20382;-83
2022/03/07 11:43:26;;;;;;;4.82;2.58;;;;;;;;;;4977586;28;20160;-82
2022/03/07 11:45:53;;;;;;;6.78;2.92;;;;;;;;;;4976644;28;20026;-82
2022/03/07 11:48:19;;;;;;;6.13;2.47;;;;;;;;;;4978802;28;20061;-83
2022/03/07 11:50:45;;;;;;;8.13;2.75;;;;;;;;;;4975722;28;20109;-82
2022/03/07 11:53:14;;;;;;;3.05;1.58;;;;;;;;;;4995560;28;20032;-82
2022/03/07 11:55:48;;;;;;;3.50;1.80;;;;;;;;;;4996032;28;20049;-82
2022/03/07 11:58:14;;;;;;;2.45;2.22;;;;;;;;;;4980268;28;20022;-82
2022/03/07 12:00:40;;;;;;;5.18;2.80;;;;;;;;;;4992736;28;21620;-83
2022/03/07 12:03:14;;;;;;;5.65;2.00;;;;;;;;;;4975675;28;21012;-83
2022/03/07 12:05:41;;;;;;;6.43;2.10;;;;;;;;;;4995131;28;20036;-82
2022/03/07 12:08:14;;;;;;;5.72;1.35;;;;;;;;;;4995143;28;20515;-80
2022/03/07 12:10:52;;;;;;;2.80;1.40;;;;;;;;;;4977176;28;20132;-80
2022/03/07 12:13:18;;;;;;;6.22;1.60;;;;;;;;;;4995672;28;20084;-79
2022/03/07 12:15:49;;;;;;;3.72;2.00;;;;;;;;;;4996796;28;20512;-82
2022/03/07 12:18:15;;;;;;;5.75;2.03;;;;;;;;;;4995450;28;20046;-83
2022/03/07 12:20:51;;;;;;;2.75;1.55;;;;;;;;;;4981776;28;20520;-83
2022/03/07 12:23:18;;;;;;;1.75;1.50;;;;;;;;;;4978566;28;20101;-81
2022/03/07 12:25:45;;;;;;;3.20;1.60;;;;;;;;;;4976209;28;20056;-81
2022/03/07 12:28:11;;;;;;;2.95;1.40;;;;;;;;;;4979540;28;20037;-81
2022/03/07 12:30:37;;;;;;;3.00;1.60;;;;;;;;;;4991365;28;20480;-81
2022/03/07 12:33:07;;;;;;;4.40;1.30;;;;;;;;;;4992781;28;20651;-80
2022/03/07 12:35:34;;;;;;;2.08;1.40;;;;;;;;;;4993050;28;20053;-81
2022/03/07 12:38:00;;;;;;;4.88;1.80;;;;;;;;;;4977841;28;20089;-81
2022/03/07 12:40:27;;;;;;;1.73;1.50;;;;;;;;;;4978761;28;20482;-81
2022/03/07 12:42:53;;;;;;;1.60;1.48;;;;;;;;;;4990459;28;20034;-81
2022/03/07 12:45:19;;;;;;;1.98;1.50;;;;;;;;;;4978060;28;20438;-81
2022/03/07 12:47:45;;;;;;;3.88;1.88;;;;;;;;;;4993675;28;20041;-80
2022/03/07 12:50:12;;;;;;;3.22;2.00;;;;;;;;;;4991080;28;20068;-81
2022/03/07 12:52:39;;;;;;;4.10;2.20;;;;;;;;;;4993392;28;20049;-82
2022/03/07 12:55:12;;;;;;;8.13;2.25;;;;;;;;;;4976438;28;20026;-81
2022/03/07 12:57:39;;;;;;;4.57;2.28;;;;;;;;;;4978934;28;20040;-81
2022/03/07 13:00:07;;;;;;;4.45;2.58;;;;;;;;;;4995756;28;20049;-81
2022/03/07 13:02:34;;;;;;;6.40;2.47;;;;;;;;;;4992568;28;20077;-81
2022/03/07 13:05:00;;;;;;;4.20;2.30;;;;;;;;;;4981219;28;20032;-81
2022/03/07 13:07:26;;;;;;;5.65;2.72;;;;;;;;;;4992538;28;20033;-81
2022/03/07 13:09:53;;;;;;;6.45;2.50;;;;;;;;;;4978366;28;20030;-81
2022/03/07 13:12:19;;;;;;;5.28;2.33;;;;;;;;;;4978965;28;20172;-81
2022/03/07 13:14:45;;;;;;;7.10;2.70;;;;;;;;;;4978737;28;20709;-81
2022/03/07 13:17:14;;;;;;;4.35;2.60;;;;;;;;;;4980524;28;20500;-81
2022/03/07 13:19:43;;;;;;;6.28;2.45;;;;;;;;;;4981581;28;20038;-81
2022/03/07 13:22:10;;;;;;;2.58;2.00;;;;;;;;;;4979096;28;20026;-81
2022/03/07 13:24:37;;;;;;;5.45;2.15;;;;;;;;;;4992547;28;20507;-81
2022/03/07 13:27:04;;;;;;;3.22;2.05;;;;;;;;;;4977882;28;20042;-81
2022/03/07 13:29:31;;;;;;;4.80;1.80;;;;;;;;;;4987102;28;20218;-81
2022/03/07 13:32:08;;;;;;;3.78;2.42;;;;;;;;;;4978180;28;20030;-81
2022/03/07 13:34:54;;;;;;;3.33;1.75;;;;;;;;;;4983349;28;20041;-81
2022/03/07 13:37:27;;;;;;;2.28;2.08;;;;;;;;;;4968858;28;20057;-81
2022/03/07 13:40:11;;;;;;;2.95;1.75;;;;;;;;;;4990430;28;20485;-81
2022/03/07 13:42:41;;;;;;;1.95;1.60;;;;;;;;;;4986434;28;22304;-81
2022/03/07 13:45:13;;;;;;;4.15;2.22;;;;;;;;;;4980268;28;20034;-81
2022/03/07 13:47:39;;;;;;;2.95;1.50;;;;;;;;;;4998635;28;20173;-81
2022/03/07 13:50:10;;;;;;;4.82;1.70;;;;;;;;;;4983380;28;20061;-81
2022/03/07 13:52:37;;;;;;;2.13;1.60;;;;;;;;;;4981000;28;20354;-81
2022/03/07 13:55:06;;;;;;;1.50;1.25;;;;;;;;;;5001701;28;20603;-81
2022/03/07 13:57:36;;;;;;;1.98;1.45;;;;;;;;;;4981747;28;20176;-81
2022/03/07 14:00:29;;;;;;;1.98;1.20;;;;;;;;;;4975033;28;20637;-81
2022/03/07 14:03:08;;;;;;;2.03;1.10;;;;;;;;;;4979412;28;20057;-81
2022/03/07 14:05:41;;;;;;;1.92;1.00;;;;;;;;;;4982731;28;20136;-81
2022/03/07 14:08:07;;;;;;;2.25;0.90;;;;;;;;;;4999244;28;20129;-81
2022/03/07 14:10:34;;;;;;;2.15;1.20;;;;;;;;;;4996231;28;20037;-82
2022/03/07 14:13:00;;;;;;;1.85;1.05;;;;;;;;;;4998398;28;20374;-81
2022/03/07 14:15:40;;;;;;;2.10;1.17;;;;;;;;;;4983675;28;20048;-81
2022/03/07 14:18:07;;;;;;;2.38;1.27;;;;;;;;;;4996250;28;20038;-81
2022/03/07 14:20:35;;;;;;;1.77;1.10;;;;;;;;;;5005127;28;20045;-81
2022/03/07 14:23:01;;;;;;;3.53;1.23;;;;;;;;;;4985908;28;20439;-81
2022/03/07 14:25:28;;;;;;;1.67;1.20;;;;;;;;;;4983371;28;20136;-81
2022/03/07 14:27:55;;;;;;;2.08;1.17;;;;;;;;;;4981760;28;20086;-81
2022/03/07 14:30:21;;;;;;;3.10;1.30;;;;;;;;;;4993064;28;20026;-81
2022/03/07 14:32:48;;;;;;;1.00;0.98;;;;;;;;;;4979902;28;20137;-81
2022/03/07 14:35:14;;;;;;;2.30;1.27;;;;;;;;;;4980307;28;20092;-81
2022/03/07 14:37:41;;;;;;;2.15;1.60;;;;;;;;;;4995868;28;20057;-81
2022/03/07 14:40:11;;;;;;;3.67;1.50;;;;;;;;;;4996757;28;20601;-81
2022/03/07 14:42:37;;;;;;;2.10;1.30;;;;;;;;;;4981506;28;20697;-81